Time;durP1;ratioP1;P1;durP2;ratioP2;P2;SDS_P1;SDS_P2;PMS_P1;PMS_P2;Temp;Humidity;BMP_temperature;BMP_pressure;BME280_temperature;BME280_humidity;BME280_pressure;Samples;Min_cycle;Max_cycle;Signal;HPM_P1;HPM_P2
2024/02/10 00:00:26;;;;;;;10.63;6.68;;;8.80;99.90;;;;;;5032822;28;20091;-75
2024/02/10 00:02:52;;;;;;;9.45;6.53;;;8.90;99.90;;;;;;5034154;28;20095;-76
2024/02/10 00:05:18;;;;;;;13.02;7.18;;;9.00;99.90;;;;;;5034269;28;20064;-75
2024/02/10 00:07:52;;;;;;;12.57;6.78;;;8.70;99.90;;;;;;5033981;28;20045;-75
2024/02/10 00:10:19;;;;;;;12.45;6.90;;;8.70;99.90;;;;;;5032798;28;20099;-75
2024/02/10 00:12:45;;;;;;;12.32;6.40;;;8.70;99.90;;;;;;5033014;28;20401;-75
2024/02/10 00:15:11;;;;;;;14.25;6.80;;;8.90;99.90;;;;;;5032056;28;20034;-75
2024/02/10 00:17:38;;;;;;;10.68;6.70;;;8.70;99.90;;;;;;5032836;28;20045;-76
2024/02/10 00:20:04;;;;;;;13.90;6.70;;;8.70;99.90;;;;;;5032519;28;20049;-75
2024/02/10 00:22:30;;;;;;;9.93;6.22;;;8.80;99.90;;;;;;5032332;28;20037;-75
2024/02/10 00:24:57;;;;;;;12.30;6.72;;;8.60;99.90;;;;;;5032775;28;20099;-76
2024/02/10 00:27:23;;;;;;;11.52;7.28;;;8.80;99.90;;;;;;5033896;28;20042;-75
2024/02/10 00:29:48;;;;;;;12.23;7.57;;;8.70;99.90;;;;;;5032378;28;20458;-75
2024/02/10 00:32:14;;;;;;;10.88;7.53;;;8.80;99.90;;;;;;5016110;28;20041;-75
2024/02/10 00:34:41;;;;;;;11.70;7.03;;;8.70;99.90;;;;;;5032565;28;20042;-75
2024/02/10 00:37:08;;;;;;;12.65;7.65;;;8.50;99.90;;;;;;5032310;28;20120;-75
2024/02/10 00:39:34;;;;;;;16.25;7.80;;;8.60;99.90;;;;;;5032098;28;20072;-75
2024/02/10 00:41:59;;;;;;;17.95;8.60;;;8.60;99.90;;;;;;5033167;28;20481;-75
2024/02/10 00:44:28;;;;;;;11.90;7.88;;;8.50;99.90;;;;;;5033565;28;20120;-75
2024/02/10 00:46:57;;;;;;;12.77;7.72;;;8.60;99.90;;;;;;5032081;28;20522;-75
2024/02/10 00:49:24;;;;;;;15.45;8.77;;;8.80;99.90;;;;;;5031925;28;20072;-75
2024/02/10 00:51:54;;;;;;;12.70;8.63;;;8.60;99.90;;;;;;5031682;28;20037;-75
2024/02/10 00:54:22;;;;;;;20.02;8.88;;;8.80;99.90;;;;;;5032271;28;20045;-75
2024/02/10 00:56:47;;;;;;;14.77;8.32;;;8.80;99.90;;;;;;5020837;28;20456;-76
2024/02/10 00:59:15;;;;;;;16.95;8.45;;;8.80;99.90;;;;;;5011984;28;20120;-75
2024/02/10 01:01:42;;;;;;;15.98;9.48;;;8.60;99.90;;;;;;5013095;28;20038;-75
2024/02/10 01:04:09;;;;;;;14.98;8.32;;;8.70;99.90;;;;;;5012003;28;20056;-75
2024/02/10 01:06:38;;;;;;;17.10;8.90;;;8.80;99.90;;;;;;5012235;28;20042;-75
2024/02/10 01:09:04;;;;;;;16.88;9.00;;;8.60;99.90;;;;;;5012040;28;20041;-75
2024/02/10 01:11:32;;;;;;;17.63;9.35;;;8.80;99.90;;;;;;4995326;28;20557;-75
2024/02/10 01:13:57;;;;;;;14.48;9.05;;;8.70;99.90;;;;;;5011885;28;20088;-75
2024/02/10 01:16:25;;;;;;;14.27;9.25;;;8.80;99.90;;;;;;5012259;28;20041;-75
2024/02/10 01:18:51;;;;;;;15.32;8.77;;;8.70;99.90;;;;;;5011814;28;20056;-75
2024/02/10 01:21:18;;;;;;;14.93;8.25;;;8.80;99.90;;;;;;5011571;28;20042;-75
2024/02/10 01:23:46;;;;;;;16.95;9.32;;;8.60;99.90;;;;;;5012958;28;20042;-75
2024/02/10 01:26:12;;;;;;;13.77;8.50;;;8.70;99.90;;;;;;4995331;28;20078;-75
2024/02/10 01:28:44;;;;;;;19.40;8.90;;;8.60;99.90;;;;;;5011027;28;20117;-76
2024/02/10 01:31:12;;;;;;;18.30;9.45;;;8.70;99.90;;;;;;5011481;28;20513;-75
2024/02/10 01:33:41;;;;;;;17.05;9.55;;;8.70;99.90;;;;;;4995401;28;20049;-75
2024/02/10 01:36:09;;;;;;;17.13;9.38;;;8.70;99.90;;;;;;4995166;28;20038;-75
2024/02/10 01:38:42;;;;;;;14.52;8.70;;;8.70;99.90;;;;;;5012941;28;20045;-75
2024/02/10 01:41:11;;;;;;;17.38;9.93;;;8.80;99.90;;;;;;5011513;28;20042;-76
2024/02/10 01:43:38;;;;;;;16.02;9.50;;;8.70;99.90;;;;;;5011326;28;20072;-75
2024/02/10 01:46:06;;;;;;;17.63;9.90;;;8.70;99.90;;;;;;5011406;28;20053;-75
2024/02/10 01:48:33;;;;;;;18.25;9.90;;;8.70;99.90;;;;;;5011395;28;20073;-75
2024/02/10 01:50:59;;;;;;;15.98;10.02;;;8.90;99.90;;;;;;4994993;28;20565;-75
2024/02/10 01:53:25;;;;;;;19.13;10.70;;;8.80;99.90;;;;;;5011292;28;20033;-74
2024/02/10 01:55:51;;;;;;;17.45;10.50;;;8.70;99.90;;;;;;5011224;28;20116;-76
2024/02/10 01:58:18;;;;;;;14.35;10.82;;;8.90;99.90;;;;;;5012412;28;20049;-74
2024/02/10 02:00:44;;;;;;;16.40;10.50;;;8.90;99.90;;;;;;4994629;28;20204;-75
2024/02/10 02:03:10;;;;;;;18.85;10.55;;;8.70;99.90;;;;;;5011367;28;20046;-75
2024/02/10 02:05:39;;;;;;;15.27;9.95;;;8.90;99.90;;;;;;5012382;28;20044;-76
2024/02/10 02:08:05;;;;;;;13.90;9.98;;;8.70;99.90;;;;;;5010878;28;20690;-75
2024/02/10 02:10:32;;;;;;;17.85;10.55;;;8.70;99.90;;;;;;5010860;28;20056;-75
2024/02/10 02:12:57;;;;;;;17.23;10.02;;;8.80;99.90;;;;;;5012522;28;20038;-75
2024/02/10 02:15:27;;;;;;;17.33;9.63;;;8.70;99.90;;;;;;5010729;28;20518;-75
2024/02/10 02:17:55;;;;;;;15.68;10.43;;;8.70;99.90;;;;;;5010727;28;20042;-75
2024/02/10 02:20:20;;;;;;;14.95;9.75;;;8.80;99.90;;;;;;5010574;28;20052;-76
2024/02/10 02:22:50;;;;;;;16.60;9.88;;;8.80;99.90;;;;;;5010697;28;20128;-75
2024/02/10 02:25:16;;;;;;;20.48;10.85;;;8.70;99.90;;;;;;5010688;28;20446;-75
2024/02/10 02:27:42;;;;;;;17.98;11.05;;;8.70;99.90;;;;;;5011939;28;20077;-75
2024/02/10 02:30:08;;;;;;;17.77;11.10;;;8.70;99.90;;;;;;5011937;28;20085;-75
2024/02/10 02:32:34;;;;;;;18.10;11.07;;;8.80;99.90;;;;;;5010619;28;20065;-75
2024/02/10 02:35:09;;;;;;;18.95;10.90;;;8.70;99.90;;;;;;5010513;28;20069;-75
2024/02/10 02:37:43;;;;;;;23.75;10.80;;;8.60;99.90;;;;;;5010516;28;20042;-76
2024/02/10 02:40:14;;;;;;;14.93;9.50;;;8.50;99.90;;;;;;5011435;28;20042;-76
2024/02/10 02:42:40;;;;;;;19.40;10.90;;;8.70;99.90;;;;;;5010468;28;20042;-76
2024/02/10 02:45:10;;;;;;;20.88;11.63;;;8.50;99.90;;;;;;5011791;28;20048;-74
2024/02/10 02:47:36;;;;;;;18.88;11.30;;;8.40;99.90;;;;;;4994127;28;20060;-75
2024/02/10 02:50:09;;;;;;;18.10;10.80;;;8.40;99.90;;;;;;4993866;28;20076;-75
2024/02/10 02:52:36;;;;;;;16.27;10.85;;;8.40;99.90;;;;;;4993849;28;20034;-75
2024/02/10 02:55:02;;;;;;;20.25;10.90;;;8.60;99.90;;;;;;5011757;28;20053;-75
2024/02/10 02:57:31;;;;;;;15.57;10.07;;;8.40;99.90;;;;;;5010171;28;20405;-75
2024/02/10 02:59:57;;;;;;;16.13;10.43;;;8.50;99.90;;;;;;5011516;28;20053;-75
2024/02/10 03:02:23;;;;;;;17.00;9.65;;;8.30;99.90;;;;;;5010062;28;20104;-75
2024/02/10 03:04:49;;;;;;;18.05;10.32;;;8.50;99.90;;;;;;5011459;28;20042;-75
2024/02/10 03:07:16;;;;;;;17.13;11.18;;;8.30;99.90;;;;;;5010107;28;20041;-75
2024/02/10 03:09:45;;;;;;;18.95;10.70;;;8.20;99.90;;;;;;5011003;28;20510;-75
2024/02/10 03:12:11;;;;;;;19.13;10.00;;;8.50;99.90;;;;;;4993869;28;20069;-75
2024/02/10 03:14:39;;;;;;;18.55;10.02;;;8.40;99.90;;;;;;5010320;28;20121;-76
2024/02/10 03:17:07;;;;;;;16.92;10.07;;;8.40;99.90;;;;;;5011489;28;20129;-75
2024/02/10 03:19:36;;;;;;;15.85;11.15;;;8.30;99.90;;;;;;4993397;28;20053;-75
2024/02/10 03:22:08;;;;;;;16.80;10.90;;;8.20;99.90;;;;;;5009868;28;20567;-75
2024/02/10 03:24:35;;;;;;;19.95;10.48;;;8.30;99.90;;;;;;5011520;28;20104;-75
2024/02/10 03:27:04;;;;;;;17.52;10.77;;;8.30;99.90;;;;;;5009872;28;20457;-75
2024/02/10 03:29:30;;;;;;;16.80;10.15;;;8.20;99.90;;;;;;5009726;28;20042;-75
2024/02/10 03:31:55;;;;;;;17.73;10.95;;;8.40;99.90;;;;;;5010150;28;20065;-75
2024/02/10 03:34:21;;;;;;;18.27;11.20;;;8.20;99.90;;;;;;5011185;28;20030;-75
2024/02/10 03:36:48;;;;;;;17.45;11.15;;;8.20;99.90;;;;;;5010211;28;20046;-75
2024/02/10 03:39:14;;;;;;;13.77;10.63;;;8.20;99.90;;;;;;5009874;28;20077;-75
2024/02/10 03:41:40;;;;;;;15.93;10.95;;;8.40;99.90;;;;;;5011049;28;20049;-75
2024/02/10 03:44:06;;;;;;;20.20;11.48;;;8.20;99.90;;;;;;5011829;28;20050;-75
2024/02/10 03:46:32;;;;;;;20.52;11.35;;;8.30;99.90;;;;;;5028351;28;20041;-75
2024/02/10 03:48:59;;;;;;;19.88;11.38;;;8.30;99.90;;;;;;5028934;28;20125;-75
2024/02/10 03:51:29;;;;;;;22.73;11.10;;;8.20;99.90;;;;;;5032153;28;20042;-75
2024/02/10 03:53:55;;;;;;;17.25;11.07;;;8.40;99.90;;;;;;5033591;28;20041;-75
2024/02/10 03:56:23;;;;;;;19.33;11.63;;;8.30;99.90;;;;;;5033145;28;20037;-75
2024/02/10 03:58:50;;;;;;;17.45;11.48;;;8.40;99.90;;;;;;5033032;28;20041;-76
2024/02/10 04:01:16;;;;;;;18.60;11.73;;;8.40;99.90;;;;;;5033088;28;20408;-76
2024/02/10 04:03:44;;;;;;;25.13;12.80;;;8.20;99.90;;;;;;5034437;28;20069;-75
2024/02/10 04:06:11;;;;;;;23.92;11.98;;;8.40;99.90;;;;;;5034187;28;20094;-76
2024/02/10 04:08:37;;;;;;;21.90;12.68;;;8.50;99.90;;;;;;5032834;28;20049;-75
2024/02/10 04:11:06;;;;;;;25.98;13.40;;;8.30;99.90;;;;;;5032675;28;20072;-76
2024/02/10 04:13:35;;;;;;;20.48;12.30;;;8.30;99.90;;;;;;5016160;28;20454;-75
2024/02/10 04:16:01;;;;;;;18.90;11.50;;;8.50;99.90;;;;;;5032702;28;20045;-75
2024/02/10 04:18:28;;;;;;;21.92;13.13;;;8.50;99.90;;;;;;5032719;28;20644;-76
2024/02/10 04:20:57;;;;;;;17.27;11.68;;;8.60;99.90;;;;;;5032590;28;20034;-75
2024/02/10 04:23:28;;;;;;;19.42;11.82;;;8.50;99.90;;;;;;5096793;22;20051;-75
2024/02/10 04:25:54;;;;;;;22.08;13.07;;;8.50;99.90;;;;;;5078770;28;20466;-75
2024/02/10 04:28:20;;;;;;;21.05;12.52;;;8.60;99.90;;;;;;5095340;28;20418;-75
2024/02/10 04:30:48;;;;;;;23.48;13.00;;;8.40;99.90;;;;;;5094679;28;20032;-75
2024/02/10 04:33:13;;;;;;;20.15;12.73;;;8.30;99.90;;;;;;5083071;28;20054;-75
2024/02/10 04:35:39;;;;;;;22.63;12.57;;;8.50;99.90;;;;;;5058633;28;20050;-75
2024/02/10 04:38:08;;;;;;;24.48;12.60;;;8.40;99.90;;;;;;5074828;28;20083;-75
2024/02/10 04:40:34;;;;;;;22.17;12.35;;;8.40;99.90;;;;;;5058695;28;20504;-75
2024/02/10 04:43:00;;;;;;;23.58;13.15;;;8.40;99.90;;;;;;5075879;28;20044;-75
2024/02/10 04:45:31;;;;;;;19.20;11.65;;;8.40;99.90;;;;;;5093923;28;20090;-75
2024/02/10 04:47:57;;;;;;;22.48;14.00;;;8.40;99.90;;;;;;5075651;28;20040;-75
2024/02/10 04:50:23;;;;;;;22.25;12.95;;;8.40;99.90;;;;;;5075470;28;20079;-74
2024/02/10 04:52:49;;;;;;;23.33;13.23;;;8.40;99.90;;;;;;5075628;28;20047;-75
2024/02/10 04:55:19;;;;;;;24.73;12.68;;;8.30;99.90;;;;;;5075598;28;20032;-75
2024/02/10 04:57:45;;;;;;;19.65;12.02;;;8.30;99.90;;;;;;5075741;28;20047;-74
2024/02/10 05:00:18;;;;;;;19.85;12.48;;;8.30;99.90;;;;;;5075573;28;20047;-74
2024/02/10 05:02:48;;;;;;;19.58;11.88;;;8.40;99.90;;;;;;5057619;28;20051;-74
2024/02/10 05:05:15;;;;;;;17.23;12.98;;;8.30;99.90;;;;;;5075777;28;20051;-74
2024/02/10 05:07:42;;;;;;;17.73;11.80;;;8.30;99.90;;;;;;5075265;28;20040;-75
2024/02/10 05:10:10;;;;;;;18.35;11.80;;;8.40;99.90;;;;;;5075522;28;20040;-75
2024/02/10 05:12:37;;;;;;;15.77;11.90;;;8.40;99.90;;;;;;5093520;28;20115;-74
2024/02/10 05:15:03;;;;;;;19.40;13.05;;;8.40;99.90;;;;;;5075289;28;20078;-76
2024/02/10 05:17:28;;;;;;;25.45;12.77;;;8.50;99.90;;;;;;5074995;28;20128;-77
2024/02/10 05:19:54;;;;;;;18.42;12.25;;;8.30;99.90;;;;;;5075210;28;20066;-75
2024/02/10 05:22:21;;;;;;;26.88;13.60;;;8.20;99.90;;;;;;5074756;28;20036;-77
2024/02/10 05:24:47;;;;;;;20.35;12.32;;;8.20;99.90;;;;;;5058332;28;20097;-77
2024/02/10 05:27:12;;;;;;;22.08;13.35;;;8.20;99.90;;;;;;5075039;28;20044;-77
2024/02/10 05:29:38;;;;;;;23.83;13.07;;;8.30;99.90;;;;;;5074745;28;20038;-77
2024/02/10 05:32:05;;;;;;;21.52;12.88;;;8.40;99.90;;;;;;5093182;28;20091;-77
2024/02/10 05:34:31;;;;;;;20.48;12.27;;;8.30;99.90;;;;;;5093123;28;20058;-77
2024/02/10 05:36:59;;;;;;;20.73;12.18;;;8.10;99.90;;;;;;5058198;28;20127;-77
2024/02/10 05:39:25;;;;;;;19.00;11.90;;;8.30;99.90;;;;;;5074801;28;20032;-77
2024/02/10 05:41:52;;;;;;;20.67;12.57;;;8.30;99.90;;;;;;5093052;28;20047;-77
2024/02/10 05:44:19;;;;;;;18.52;11.13;;;8.40;99.90;;;;;;5092973;28;20063;-77
2024/02/10 05:46:45;;;;;;;21.67;12.40;;;8.30;99.90;;;;;;5092757;28;20124;-77
2024/02/10 05:49:11;;;;;;;18.92;12.55;;;8.40;99.90;;;;;;5092644;28;20059;-77
2024/02/10 05:51:40;;;;;;;20.27;12.52;;;8.40;99.90;;;;;;5074440;28;20090;-77
2024/02/10 05:54:06;;;;;;;20.58;12.93;;;8.50;99.90;;;;;;5092667;28;20042;-76
2024/02/10 05:56:35;;;;;;;21.60;12.77;;;8.40;99.90;;;;;;5092647;28;20044;-77
2024/02/10 05:59:03;;;;;;;18.77;12.23;;;8.30;99.90;;;;;;5092333;28;20443;-77
2024/02/10 06:01:30;;;;;;;18.98;12.75;;;8.30;99.90;;;;;;5092338;28;20040;-77
2024/02/10 06:03:56;;;;;;;20.33;12.32;;;8.20;99.90;;;;;;5074155;28;20036;-77
2024/02/10 06:06:22;;;;;;;23.42;12.80;;;8.20;99.90;;;;;;5092202;28;20507;-77
2024/02/10 06:08:48;;;;;;;20.75;12.55;;;8.20;99.90;;;;;;5074028;28;20044;-77
2024/02/10 06:11:19;;;;;;;23.15;13.88;;;8.20;99.90;;;;;;5074208;28;20036;-77
2024/02/10 06:13:50;;;;;;;18.48;11.85;;;8.30;99.90;;;;;;5073693;28;20032;-77
2024/02/10 06:16:16;;;;;;;21.77;12.45;;;8.20;99.90;;;;;;5073999;28;20514;-77
2024/02/10 06:18:41;;;;;;;22.25;12.35;;;8.40;99.90;;;;;;5092059;28;20111;-77
2024/02/10 06:21:08;;;;;;;18.38;12.77;;;8.50;99.90;;;;;;5073761;28;20062;-77
2024/02/10 06:23:34;;;;;;;23.70;12.40;;;8.30;99.90;;;;;;5073757;28;20111;-77
2024/02/10 06:26:00;;;;;;;22.42;12.43;;;8.30;99.90;;;;;;5073845;28;20027;-77
2024/02/10 06:28:25;;;;;;;21.23;12.95;;;8.30;99.90;;;;;;5091859;28;20135;-77
2024/02/10 06:30:52;;;;;;;18.63;11.35;;;8.30;99.90;;;;;;5057115;28;20076;-77
2024/02/10 06:33:30;;;;;;;20.58;11.85;;;8.30;99.90;;;;;;5073669;28;20082;-77
2024/02/10 06:35:59;;;;;;;21.50;11.57;;;8.30;99.90;;;;;;5073955;28;20028;-77
2024/02/10 06:38:32;;;;;;;20.70;12.02;;;8.40;99.90;;;;;;5057298;28;20039;-77
2024/02/10 06:41:02;;;;;;;19.05;10.82;;;8.30;99.90;;;;;;5073740;28;20499;-77
2024/02/10 06:43:27;;;;;;;21.17;11.30;;;8.30;99.90;;;;;;5091829;28;20046;-77
2024/02/10 06:45:53;;;;;;;17.83;11.27;;;8.40;99.90;;;;;;5056772;28;20119;-77
2024/02/10 06:48:20;;;;;;;20.92;11.75;;;8.60;99.90;;;;;;5091785;28;20481;-77
2024/02/10 06:50:46;;;;;;;18.25;11.73;;;8.30;99.90;;;;;;5073350;28;20047;-77
2024/02/10 06:53:12;;;;;;;17.63;11.60;;;8.40;99.90;;;;;;5073436;28;20035;-77
2024/02/10 06:55:37;;;;;;;21.75;12.52;;;8.60;99.90;;;;;;5073521;28;20113;-77
2024/02/10 06:58:03;;;;;;;24.48;12.75;;;8.60;99.90;;;;;;5073485;28;20036;-77
2024/02/10 07:00:37;;;;;;;22.15;11.68;;;8.60;99.90;;;;;;5073356;28;20089;-75
2024/02/10 07:03:05;;;;;;;23.23;13.00;;;8.50;99.90;;;;;;5091740;28;20071;-75
2024/02/10 07:05:33;;;;;;;19.48;11.57;;;8.50;99.90;;;;;;5091639;28;20104;-75
2024/02/10 07:07:59;;;;;;;24.95;13.50;;;8.60;99.90;;;;;;5073135;28;20052;-77
2024/02/10 07:10:25;;;;;;;21.98;13.00;;;8.80;99.90;;;;;;5056464;28;20115;-77
2024/02/10 07:12:55;;;;;;;17.38;11.00;;;8.60;99.90;;;;;;5073147;28;20127;-77
2024/02/10 07:15:23;;;;;;;21.33;13.23;;;8.60;99.90;;;;;;5091557;28;20506;-77
2024/02/10 07:17:50;;;;;;;21.67;13.60;;;8.70;99.90;;;;;;5091482;28;20044;-77
2024/02/10 07:20:23;;;;;;;22.63;13.32;;;8.60;99.90;;;;;;5073130;28;20155;-77
2024/02/10 07:23:00;;;;;;;22.70;13.00;;;8.60;99.90;;;;;;5073073;28;20036;-77
2024/02/10 07:25:28;;;;;;;21.67;12.23;;;8.70;99.90;;;;;;5057913;28;20131;-77
2024/02/10 07:28:00;;;;;;;22.33;13.70;;;8.80;99.90;;;;;;5077229;28;20086;-77
2024/02/10 07:30:27;;;;;;;29.23;13.50;;;8.60;99.90;;;;;;5095850;28;20051;-77
2024/02/10 07:32:53;;;;;;;25.55;14.05;;;8.90;99.90;;;;;;5060399;28;20043;-75
2024/02/10 07:35:22;;;;;;;24.75;14.52;;;8.80;99.90;;;;;;5077025;28;20044;-77
2024/02/10 07:37:49;;;;;;;27.65;15.52;;;8.70;99.90;;;;;;5076817;28;20036;-77
2024/02/10 07:40:15;;;;;;;29.92;15.15;;;9.00;99.90;;;;;;5076930;28;20047;-77
2024/02/10 07:42:41;;;;;;;26.23;15.02;;;8.80;99.90;;;;;;5076962;28;20039;-77
2024/02/10 07:45:07;;;;;;;24.02;14.80;;;9.00;99.90;;;;;;5060244;28;20042;-78
2024/02/10 07:47:34;;;;;;;25.83;15.27;;;8.90;99.90;;;;;;5076791;28;20048;-77
2024/02/10 07:50:02;;;;;;;24.55;14.23;;;8.80;99.90;;;;;;5059967;28;20495;-77
2024/02/10 07:52:28;;;;;;;25.80;15.18;;;8.90;99.90;;;;;;5059923;28;20036;-77
2024/02/10 07:54:56;;;;;;;29.05;16.00;;;8.80;99.90;;;;;;5076751;28;20036;-77
2024/02/10 07:57:23;;;;;;;22.55;13.95;;;8.80;99.90;;;;;;5076615;28;20419;-77
2024/02/10 07:59:50;;;;;;;28.45;14.98;;;9.10;99.90;;;;;;5059639;28;20061;-77
2024/02/10 08:02:25;;;;;;;26.67;14.10;;;9.10;99.90;;;;;;5059843;28;20055;-77
2024/02/10 08:04:56;;;;;;;25.90;15.25;;;9.10;99.90;;;;;;5094690;28;20117;-77
2024/02/10 08:07:27;;;;;;;25.65;15.55;;;9.00;99.90;;;;;;5093445;28;20048;-77
2024/02/10 08:09:53;;;;;;;30.15;15.75;;;9.20;99.90;;;;;;5059926;28;20040;-77
2024/02/10 08:12:23;;;;;;;31.88;16.10;;;9.20;99.90;;;;;;5076278;28;20510;-77
2024/02/10 08:14:56;;;;;;;29.55;15.82;;;9.10;99.90;;;;;;5094423;28;20569;-77
2024/02/10 08:17:30;;;;;;;29.50;15.30;;;9.20;99.90;;;;;;5094402;28;20043;-77
2024/02/10 08:19:59;;;;;;;28.85;16.52;;;9.10;99.90;;;;;;5059379;28;20495;-77
2024/02/10 08:22:34;;;;;;;30.48;16.63;;;9.10;99.90;;;;;;5076239;28;20082;-77
2024/02/10 08:25:01;;;;;;;29.83;16.13;;;9.20;99.90;;;;;;5076174;28;20496;-77
2024/02/10 08:27:28;;;;;;;29.95;15.70;;;9.30;99.90;;;;;;5076270;28;20415;-77
2024/02/10 08:29:54;;;;;;;30.65;15.75;;;9.20;99.90;;;;;;5075389;28;20496;-77
2024/02/10 08:32:20;;;;;;;29.42;17.27;;;9.40;99.90;;;;;;5093938;28;20044;-76
2024/02/10 08:34:45;;;;;;;32.08;17.98;;;9.40;99.90;;;;;;5075864;28;20368;-76
2024/02/10 08:37:12;;;;;;;30.73;16.67;;;9.20;99.90;;;;;;5075657;28;20044;-76
2024/02/10 08:39:38;;;;;;;28.50;16.55;;;9.40;99.90;;;;;;5075638;28;20044;-76
2024/02/10 08:42:05;;;;;;;25.08;15.60;;;9.40;99.90;;;;;;5058236;28;20487;-76
2024/02/10 08:44:32;;;;;;;25.52;15.07;;;9.60;99.90;;;;;;5093261;28;20040;-74
2024/02/10 08:47:03;;;;;;;25.30;15.93;;;9.60;99.90;;;;;;5055265;28;20049;-75
2024/02/10 08:49:30;;;;;;;26.08;16.05;;;9.60;99.90;;;;;;5073463;28;20416;-76
2024/02/10 08:51:56;;;;;;;27.40;16.48;;;9.80;99.90;;;;;;5055777;28;20451;-76
2024/02/10 08:54:22;;;;;;;31.98;17.38;;;9.60;99.90;;;;;;5038856;28;20036;-76
2024/02/10 08:56:48;;;;;;;26.08;15.80;;;9.80;99.90;;;;;;5072118;28;20041;-76
2024/02/10 08:59:13;;;;;;;31.73;17.00;;;9.70;99.90;;;;;;5055646;28;20083;-76
2024/02/10 09:01:42;;;;;;;30.10;15.73;;;9.60;99.90;;;;;;5038720;28;20036;-76
2024/02/10 09:04:09;;;;;;;28.95;15.93;;;9.90;99.90;;;;;;5055442;28;20093;-76
2024/02/10 09:06:35;;;;;;;31.75;15.70;;;9.90;99.90;;;;;;5055773;28;20060;-75
2024/02/10 09:09:03;;;;;;;27.65;15.88;;;9.80;99.90;;;;;;5055214;28;20051;-76
2024/02/10 09:11:39;;;;;;;26.48;15.60;;;9.80;99.90;;;;;;5074888;28;20115;-76
2024/02/10 09:14:06;;;;;;;28.73;15.35;;;9.80;99.90;;;;;;5057966;28;20070;-76
2024/02/10 09:16:32;;;;;;;27.77;15.77;;;10.00;99.90;;;;;;5075173;28;20036;-76
2024/02/10 09:19:01;;;;;;;26.98;14.90;;;10.10;99.90;;;;;;5074976;28;20157;-76
2024/02/10 09:21:26;;;;;;;23.55;14.65;;;10.00;99.90;;;;;;5093209;28;20044;-77
2024/02/10 09:23:52;;;;;;;24.63;14.82;;;10.10;99.90;;;;;;5075151;28;20040;-77
2024/02/10 09:26:19;;;;;;;29.80;14.50;;;10.10;99.90;;;;;;5093013;28;20036;-77
2024/02/10 09:28:45;;;;;;;24.90;14.95;;;9.90;99.90;;;;;;5074827;28;20047;-76
2024/02/10 09:31:15;;;;;;;24.77;14.65;;;9.90;99.90;;;;;;5074677;28;20040;-76
2024/02/10 09:33:42;;;;;;;25.33;15.02;;;10.00;99.90;;;;;;5058413;28;20047;-77
2024/02/10 09:36:08;;;;;;;24.08;13.77;;;10.10;99.90;;;;;;5074972;28;20040;-76
2024/02/10 09:38:40;;;;;;;25.52;14.90;;;9.90;99.90;;;;;;5074577;28;20086;-76
2024/02/10 09:41:08;;;;;;;26.13;13.82;;;10.00;99.90;;;;;;5092946;28;20072;-76
2024/02/10 09:43:38;;;;;;;26.27;14.23;;;10.00;99.90;;;;;;5074809;28;20063;-76
2024/02/10 09:46:06;;;;;;;31.23;14.43;;;10.10;99.90;;;;;;5092153;28;20036;-76
2024/02/10 09:48:41;;;;;;;24.20;13.82;;;10.20;99.90;;;;;;5073062;28;20039;-77
2024/02/10 09:51:08;;;;;;;20.92;13.27;;;10.20;99.90;;;;;;5074118;28;20067;-76
2024/02/10 09:53:34;;;;;;;20.92;13.32;;;10.10;99.90;;;;;;5074330;28;20071;-76
2024/02/10 09:56:01;;;;;;;26.25;13.18;;;10.10;99.90;;;;;;5075252;28;20364;-75
2024/02/10 09:58:27;;;;;;;22.20;12.32;;;10.20;99.90;;;;;;5093993;28;20085;-75
2024/02/10 10:00:53;;;;;;;19.70;11.85;;;10.40;99.90;;;;;;5075939;28;20537;-76
2024/02/10 10:03:20;;;;;;;21.27;12.35;;;10.40;99.90;;;;;;5075788;28;20044;-76
2024/02/10 10:05:47;;;;;;;22.55;13.32;;;10.10;99.90;;;;;;5075485;28;20031;-76
2024/02/10 10:08:13;;;;;;;22.00;12.40;;;10.20;99.90;;;;;;5075807;28;20047;-75
2024/02/10 10:10:39;;;;;;;19.08;12.52;;;10.40;99.90;;;;;;5059520;28;20047;-76
2024/02/10 10:13:09;;;;;;;19.55;11.75;;;10.50;99.90;;;;;;5096983;28;20063;-77
2024/02/10 10:15:39;;;;;;;21.55;11.90;;;10.40;99.90;;;;;;5075958;28;20067;-77
2024/02/10 10:18:19;;;;;;;19.40;12.18;;;10.60;99.90;;;;;;5058331;28;20051;-76
2024/02/10 10:20:49;;;;;;;18.52;11.65;;;10.60;99.90;;;;;;5075801;28;20075;-76
2024/02/10 10:23:18;;;;;;;17.75;11.77;;;10.50;99.90;;;;;;5080315;22;20136;-74
2024/02/10 10:25:47;;;;;;;18.65;11.35;;;10.50;99.90;;;;;;5033704;28;20123;-77
2024/02/10 10:28:13;;;;;;;17.95;11.48;;;10.70;99.90;;;;;;5033584;28;20041;-76
2024/02/10 10:30:43;;;;;;;19.70;11.85;;;10.80;99.90;;;;;;5051313;28;20041;-75
2024/02/10 10:33:10;;;;;;;18.02;10.73;;;10.80;99.90;;;;;;5051107;28;20450;-75
2024/02/10 10:35:44;;;;;;;17.85;10.43;;;10.80;99.90;;;;;;5051516;28;20099;-75
2024/02/10 10:38:11;;;;;;;16.77;10.82;;;10.90;99.90;;;;;;5033547;28;20390;-74
2024/02/10 10:40:37;;;;;;;19.80;11.68;;;10.90;99.90;;;;;;5033411;28;20044;-74
2024/02/10 10:43:10;;;;;;;17.65;10.68;;;10.90;99.90;;;;;;5033640;28;20044;-75
2024/02/10 10:45:38;;;;;;;17.42;10.15;;;10.80;99.90;;;;;;5033615;28;20496;-75
2024/02/10 10:48:04;;;;;;;16.40;10.30;;;11.00;99.90;;;;;;5033553;28;20045;-75
2024/02/10 10:50:31;;;;;;;18.42;10.43;;;11.00;99.90;;;;;;5033615;28;20484;-75
2024/02/10 10:53:04;;;;;;;14.00;9.07;;;10.90;99.90;;;;;;5033580;28;20504;-75
2024/02/10 10:55:35;;;;;;;16.77;9.85;;;11.10;99.90;;;;;;5051454;28;20040;-76
2024/02/10 10:58:09;;;;;;;14.70;9.07;;;11.10;99.90;;;;;;5034260;28;20555;-76
2024/02/10 11:00:39;;;;;;;15.98;9.82;;;10.90;99.90;;;;;;5036525;28;20041;-75
2024/02/10 11:03:05;;;;;;;16.92;9.48;;;11.10;99.90;;;;;;5037507;28;20037;-75
2024/02/10 11:05:42;;;;;;;15.15;8.80;;;11.20;99.90;;;;;;5026058;28;20518;-76
2024/02/10 11:08:13;;;;;;;15.70;9.73;;;11.10;99.90;;;;;;5020650;28;20040;-76
2024/02/10 11:10:48;;;;;;;14.77;9.10;;;11.30;99.90;;;;;;5037308;28;20048;-76
2024/02/10 11:13:21;;;;;;;19.02;9.15;;;11.10;99.90;;;;;;5055260;28;20036;-76
2024/02/10 11:16:00;;;;;;;14.40;9.27;;;11.30;99.90;;;;;;5037249;28;20392;-75
2024/02/10 11:18:25;;;;;;;13.50;8.48;;;11.40;99.90;;;;;;5037250;28;20076;-76
2024/02/10 11:20:51;;;;;;;13.43;8.98;;;11.40;99.90;;;;;;5020432;28;20134;-75
2024/02/10 11:23:21;;;;;;;14.60;8.25;;;11.50;99.90;;;;;;5037406;28;20507;-76
2024/02/10 11:25:47;;;;;;;13.20;8.27;;;11.40;99.90;;;;;;5037487;28;20074;-76
2024/02/10 11:28:22;;;;;;;13.52;8.30;;;11.40;99.90;;;;;;5054989;28;20520;-75
2024/02/10 11:30:49;;;;;;;11.50;7.85;;;11.50;99.90;;;;;;5036777;28;20086;-75
2024/02/10 11:33:22;;;;;;;13.68;8.43;;;11.60;99.90;;;;;;5036853;28;20041;-77
2024/02/10 11:35:52;;;;;;;;;;;11.60;99.90;;;;;;5038026;28;20040;-78
2024/02/10 11:38:23;;;;;;;11.23;7.53;;;11.70;99.90;;;;;;5037163;28;19917;-75
2024/02/10 11:40:49;;;;;;;15.00;8.30;;;11.60;99.90;;;;;;5054788;28;20044;-75
2024/02/10 11:43:16;;;;;;;11.93;7.20;;;11.70;99.90;;;;;;5020504;28;20573;-75
2024/02/10 11:45:42;;;;;;;11.38;7.35;;;11.70;99.90;;;;;;5036763;28;20044;-75
2024/02/10 11:48:08;;;;;;;11.10;7.38;;;11.70;99.90;;;;;;5054783;28;20049;-75
2024/02/10 11:50:42;;;;;;;11.93;7.97;;;11.90;99.90;;;;;;5020157;28;20056;-75
2024/02/10 11:53:11;;;;;;;13.52;7.53;;;11.90;99.90;;;;;;5036972;28;20139;-76
2024/02/10 11:55:43;;;;;;;11.60;8.02;;;11.90;99.90;;;;;;5054747;28;20072;-76
2024/02/10 11:58:16;;;;;;;9.82;6.65;;;11.80;99.90;;;;;;5036664;28;20037;-76
2024/02/10 12:00:43;;;;;;;12.35;7.25;;;12.00;99.90;;;;;;5036711;28;20037;-76
2024/02/10 12:03:13;;;;;;;10.80;6.72;;;12.00;99.90;;;;;;5036774;28;20399;-76
2024/02/10 12:05:40;;;;;;;10.60;6.82;;;12.10;99.90;;;;;;5036549;28;20124;-76
2024/02/10 12:08:07;;;;;;;9.57;5.75;;;12.00;99.90;;;;;;5036444;28;20082;-76
2024/02/10 12:10:40;;;;;;;9.13;5.93;;;12.10;99.90;;;;;;5036028;28;20040;-76
2024/02/10 12:13:09;;;;;;;8.60;6.68;;;12.10;99.90;;;;;;5038507;28;20551;-76
2024/02/10 12:15:37;;;;;;;11.45;6.43;;;12.10;99.90;;;;;;5036586;28;20037;-76
2024/02/10 12:18:03;;;;;;;12.48;6.63;;;12.10;99.90;;;;;;5036286;28;20053;-76
2024/02/10 12:20:30;;;;;;;8.38;6.45;;;12.20;99.90;;;;;;5036078;28;20048;-76
2024/02/10 12:22:55;;;;;;;8.43;5.82;;;12.30;99.90;;;;;;5036396;28;20400;-76
2024/02/10 12:25:22;;;;;;;9.73;6.57;;;12.30;99.90;;;;;;5053984;28;20037;-76
2024/02/10 12:27:51;;;;;;;7.53;5.32;;;12.40;99.90;;;;;;5054043;28;20045;-76
2024/02/10 12:30:18;;;;;;;9.93;5.97;;;12.30;99.90;;;;;;5035396;28;20493;-76
2024/02/10 12:32:44;;;;;;;9.82;6.30;;;12.50;99.90;;;;;;5018930;28;20099;-76
2024/02/10 12:35:16;;;;;;;13.95;6.32;;;12.40;99.90;;;;;;5035774;28;20044;-76
2024/02/10 12:37:46;;;;;;;10.13;6.60;;;12.40;99.90;;;;;;5035888;28;20048;-75
2024/02/10 12:40:13;;;;;;;9.20;5.72;;;12.50;99.90;;;;;;5036091;28;20048;-76